Toledo, OH

7:45 AM EST on January 24, 2017 (GMT -0500)
643 white st | | Change Station

Elev 604 ft 41.64 °N, 83.51 °W | Updated 50 seconds ago

Overcast
Overcast
38.1 °F
Feels Like 38 °F
N
0.0
Wind Variable Wind from West
Gusts 0.7 mph

Today
High -- | Low -- °F
--% Chance of Precip.
Yesterday
High -- | Low -- °F
Precip. -- in
Pressure 29.75 in
Visibility 1.2 miles
Clouds Overcast 300 ft
Windchill 38 °F
Dew Point 36 °F
Humidity 94%
Rainfall 0.01 in
Snow Depth Not available.
7:53 AM 5:40 PM
Waning Crescent, 12% visible
SPECI KTDZ 241230Z AUTO 00000KT 1 1/4SM BR OVC003 03/03 A2975 RMK AO2 CIG 002V006 T00280028
Pressure 29.75 in
Visibility 1.2 miles
Clouds Overcast 300 ft
Windchill 38 °F
Dew Point 36 °F
Humidity 94%
Rainfall 0.01 in
Snow Depth Not available.
7:53 AM 5:40 PM
Waning Crescent, 12% visible
SPECI KTDZ 241230Z AUTO 00000KT 1 1/4SM BR OVC003 03/03 A2975 RMK AO2 CIG 002V006 T00280028

Get Your Daily Forecast Email!

Thanks for signing up!

Be on the lookout for a verification email in your inbox.

You'll start receiving the daily forecast at 8 AM.

×

10-Day Weather Forecast

Almanac

Astronomy

Jan. 24, 2017 Rise Set
Actual Time
Civil Twilight
Nautical Twilight
Astronomical Twilight
Moon
Length of Visible Light
Length of Day
Tomorrow will be .
, % of the Moon is Illuminated

Today's Extremes

State Highs State Lows

Community

WunderPhotos

Upload Photos

1,962,540 photos uploaded!

WunderBlog® & News

Nearby

Air Quality

  Air Quality AQ Index Pollutant
Not available.

Snow Depth

Station Depth Elevation

Earthquake Activity

City Distance Mag. Time & Date
Minimum magnitude displayed is 2.5.

Coastal Water Temperatures

Place Temperature

Stations

Nearby Weather Stations

Station Location Temp. Windchill Dew Point Humidity Wind Precip. Elev Updated Type
                   

Watches & Warnings

There are currently no watches in effect.